Time;durP1;ratioP1;P1;durP2;ratioP2;P2;SDS_P1;SDS_P2;PMS_P1;PMS_P2;Temp;Humidity;BMP_temperature;BMP_pressure;BME280_temperature;BME280_humidity;BME280_pressure;Samples;Min_cycle;Max_cycle;Signal;HPM_P1;HPM_P2
2023/05/20 00:00:22;;;;;;;3.72;1.00;;;10.50;67.00;;;;;;5044579;28;20068;-69
2023/05/20 00:02:47;;;;;;;2.05;1.05;;;10.50;67.40;;;;;;5065452;28;20021;-69
2023/05/20 00:05:14;;;;;;;2.42;1.02;;;10.50;67.40;;;;;;5049123;28;20036;-69
2023/05/20 00:07:39;;;;;;;2.95;0.95;;;10.40;67.10;;;;;;5050566;28;20040;-69
2023/05/20 00:10:05;;;;;;;2.97;1.10;;;10.40;67.70;;;;;;5051130;28;20024;-69
2023/05/20 00:12:31;;;;;;;2.05;1.00;;;10.40;67.60;;;;;;5048997;28;20029;-69
2023/05/20 00:14:56;;;;;;;1.42;1.05;;;10.40;67.90;;;;;;5055201;28;20063;-69
2023/05/20 00:17:22;;;;;;;5.63;1.20;;;10.40;67.90;;;;;;5048357;28;20441;-69
2023/05/20 00:19:48;;;;;;;3.70;1.05;;;10.30;67.70;;;;;;5052290;28;20471;-69
2023/05/20 00:22:13;;;;;;;1.73;0.82;;;10.30;67.90;;;;;;5043774;28;20025;-69
2023/05/20 00:24:39;;;;;;;4.28;0.90;;;10.40;67.40;;;;;;5048336;28;20132;-69
2023/05/20 00:27:04;;;;;;;5.18;1.10;;;10.40;67.40;;;;;;5047882;28;20021;-69
2023/05/20 00:29:30;;;;;;;2.05;1.10;;;10.30;68.10;;;;;;5052241;28;20037;-69
2023/05/20 00:31:55;;;;;;;1.90;0.88;;;10.30;68.20;;;;;;5050452;28;20071;-69
2023/05/20 00:34:21;;;;;;;1.65;0.77;;;10.30;67.40;;;;;;5042026;28;20531;-69
2023/05/20 00:36:46;;;;;;;3.03;1.02;;;10.30;67.40;;;;;;5046714;28;20040;-69
2023/05/20 00:39:12;;;;;;;3.17;1.00;;;10.30;67.60;;;;;;5042709;28;20030;-72
2023/05/20 00:41:37;;;;;;;4.10;1.00;;;10.30;67.30;;;;;;5050130;28;20420;-71
2023/05/20 00:44:03;;;;;;;2.65;0.98;;;10.30;67.20;;;;;;5045444;28;20103;-71
2023/05/20 00:46:29;;;;;;;3.75;0.95;;;10.30;67.60;;;;;;5051529;28;20567;-69
2023/05/20 00:48:54;;;;;;;3.53;0.80;;;10.30;67.60;;;;;;5048216;28;20541;-69
2023/05/20 00:51:20;;;;;;;1.90;0.93;;;10.30;68.60;;;;;;5037413;28;20038;-69
2023/05/20 00:53:46;;;;;;;3.42;1.20;;;10.20;67.90;;;;;;5051281;28;20043;-69
2023/05/20 00:56:12;;;;;;;3.08;0.90;;;10.20;67.40;;;;;;5037157;28;20041;-69
2023/05/20 00:58:39;;;;;;;4.90;1.08;;;10.20;68.10;;;;;;5037361;28;20476;-69
2023/05/20 01:01:05;;;;;;;2.42;0.75;;;10.20;67.60;;;;;;5055891;28;20029;-69
2023/05/20 01:03:31;;;;;;;2.38;0.98;;;10.10;68.60;;;;;;5051937;28;20025;-69
2023/05/20 01:05:56;;;;;;;2.28;0.88;;;10.10;68.20;;;;;;5038568;28;20033;-69
2023/05/20 01:08:23;;;;;;;1.70;0.90;;;10.10;68.30;;;;;;5063166;28;20017;-69
2023/05/20 01:10:59;;;;;;;2.70;1.00;;;10.10;68.30;;;;;;5050066;28;20107;-69
2023/05/20 01:13:31;;;;;;;1.73;0.82;;;10.20;68.60;;;;;;5040929;28;20035;-69
2023/05/20 01:15:59;;;;;;;1.20;0.70;;;10.10;68.20;;;;;;5043241;28;20040;-69
2023/05/20 01:18:29;;;;;;;5.45;0.90;;;10.10;68.10;;;;;;5055768;28;20024;-69
2023/05/20 01:21:00;;;;;;;1.27;0.80;;;10.10;68.70;;;;;;5045534;28;20021;-69
2023/05/20 01:23:36;;;;;;;3.30;1.20;;;10.10;69.10;;;;;;5047811;28;20029;-69
2023/05/20 01:26:02;;;;;;;1.10;0.80;;;10.00;68.70;;;;;;5047929;28;20057;-69
2023/05/20 01:28:29;;;;;;;1.58;0.90;;;9.90;68.90;;;;;;5045990;28;20017;-69
2023/05/20 01:30:55;;;;;;;4.18;1.00;;;10.00;68.70;;;;;;5042497;28;20044;-69
2023/05/20 01:33:24;;;;;;;6.35;0.80;;;9.90;69.50;;;;;;5047978;28;20511;-69
2023/05/20 01:35:50;;;;;;;4.50;0.95;;;9.90;69.40;;;;;;5045977;28;20339;-69
2023/05/20 01:38:17;;;;;;;2.47;1.00;;;9.90;69.40;;;;;;5049454;28;20088;-69
2023/05/20 01:40:44;;;;;;;3.83;1.00;;;9.80;69.70;;;;;;5041191;28;20462;-69
2023/05/20 01:43:10;;;;;;;2.05;0.95;;;9.80;70.20;;;;;;5047092;28;20025;-69
2023/05/20 01:45:37;;;;;;;3.47;0.90;;;9.80;69.80;;;;;;5046976;28;20100;-69
2023/05/20 01:48:02;;;;;;;2.70;1.00;;;9.70;69.70;;;;;;5038014;28;20178;-69
2023/05/20 01:50:28;;;;;;;2.75;0.93;;;9.70;70.50;;;;;;5040190;28;20548;-69
2023/05/20 01:52:53;;;;;;;2.90;1.10;;;9.70;71.10;;;;;;5049497;28;20373;-68
2023/05/20 01:55:19;;;;;;;1.88;1.00;;;9.60;70.90;;;;;;5051159;28;20464;-69
2023/05/20 01:57:44;;;;;;;1.73;0.95;;;9.50;71.30;;;;;;5047002;28;20039;-69
2023/05/20 02:00:10;;;;;;;2.70;0.95;;;9.50;71.20;;;;;;5047450;28;20024;-69
2023/05/20 02:02:36;;;;;;;1.70;0.90;;;9.50;71.90;;;;;;5051523;28;20540;-69
2023/05/20 02:05:01;;;;;;;2.55;1.05;;;9.50;71.60;;;;;;5042054;28;20112;-69
2023/05/20 02:07:27;;;;;;;1.80;0.80;;;9.40;72.00;;;;;;5056138;28;20036;-69
2023/05/20 02:09:52;;;;;;;2.30;0.90;;;9.30;72.70;;;;;;5057440;28;20362;-69
2023/05/20 02:12:18;;;;;;;1.77;1.00;;;9.30;72.40;;;;;;5057233;28;20025;-69
2023/05/20 02:14:44;;;;;;;1.60;0.90;;;9.30;72.90;;;;;;5051128;28;20036;-69
2023/05/20 02:17:10;;;;;;;3.58;1.00;;;9.20;73.20;;;;;;5052768;28;20482;-69
2023/05/20 02:19:36;;;;;;;3.22;1.08;;;9.20;73.60;;;;;;5067305;28;20091;-69
2023/05/20 02:22:01;;;;;;;1.90;0.80;;;9.10;73.90;;;;;;5044573;28;20043;-69
2023/05/20 02:24:27;;;;;;;1.42;0.90;;;9.10;73.80;;;;;;5059831;28;20479;-69
2023/05/20 02:26:54;;;;;;;4.03;1.13;;;9.00;73.60;;;;;;5058528;28;20025;-69
2023/05/20 02:29:21;;;;;;;3.28;1.00;;;9.00;73.90;;;;;;5051338;28;20032;-69
2023/05/20 02:31:47;;;;;;;1.98;1.00;;;8.90;74.30;;;;;;5051982;28;20025;-69
2023/05/20 02:34:14;;;;;;;2.55;1.10;;;8.80;74.40;;;;;;5052808;28;20124;-69
2023/05/20 02:36:40;;;;;;;2.03;1.00;;;8.90;74.40;;;;;;5050691;28;20396;-69
2023/05/20 02:39:06;;;;;;;1.95;0.90;;;8.80;74.70;;;;;;5045069;28;20025;-69
2023/05/20 02:41:31;;;;;;;2.17;0.90;;;8.70;75.00;;;;;;5050535;28;20035;-69
2023/05/20 02:43:57;;;;;;;3.90;1.00;;;8.70;75.00;;;;;;5051773;28;20507;-69
2023/05/20 02:46:22;;;;;;;3.45;0.98;;;8.70;75.20;;;;;;5050249;28;20132;-69
2023/05/20 02:48:47;;;;;;;3.58;1.10;;;8.70;75.40;;;;;;5051534;28;20029;-69
2023/05/20 02:51:13;;;;;;;1.77;1.00;;;8.70;75.80;;;;;;5042179;28;20072;-69
2023/05/20 02:53:38;;;;;;;3.83;0.90;;;8.60;76.30;;;;;;5049320;28;20063;-69
2023/05/20 02:56:04;;;;;;;3.20;1.10;;;8.60;76.20;;;;;;5042080;28;20040;-69
2023/05/20 02:58:30;;;;;;;1.88;0.95;;;8.60;76.30;;;;;;5047023;28;20024;-69
2023/05/20 03:00:56;;;;;;;2.67;0.75;;;8.50;76.60;;;;;;5048829;28;20033;-69
2023/05/20 03:03:24;;;;;;;2.03;1.00;;;8.50;76.50;;;;;;5056083;28;20353;-69
2023/05/20 03:05:50;;;;;;;2.10;1.00;;;8.60;76.50;;;;;;5053326;28;20409;-69
2023/05/20 03:08:17;;;;;;;4.57;1.10;;;8.60;76.70;;;;;;5055888;28;20028;-69
2023/05/20 03:10:42;;;;;;;2.33;0.98;;;8.60;76.30;;;;;;5049761;28;20076;-69
2023/05/20 03:13:10;;;;;;;1.75;1.00;;;8.60;76.40;;;;;;5048374;28;20104;-69
2023/05/20 03:15:36;;;;;;;2.15;0.98;;;8.60;76.40;;;;;;5050573;28;20021;-69
2023/05/20 03:18:02;;;;;;;2.08;1.00;;;8.60;76.50;;;;;;5050305;28;20036;-69
2023/05/20 03:20:31;;;;;;;1.20;0.80;;;8.60;76.80;;;;;;5050068;28;20025;-69
2023/05/20 03:22:57;;;;;;;5.28;1.08;;;8.60;77.00;;;;;;5047062;28;20032;-69
2023/05/20 03:25:23;;;;;;;3.67;1.20;;;8.60;77.10;;;;;;5052586;28;20477;-69
2023/05/20 03:27:49;;;;;;;1.77;0.73;;;8.60;76.90;;;;;;5036453;28;20128;-69
2023/05/20 03:30:14;;;;;;;2.25;1.20;;;8.50;76.80;;;;;;5041494;28;20133;-69
2023/05/20 03:32:40;;;;;;;3.20;1.17;;;8.60;77.00;;;;;;5038548;28;20454;-69
2023/05/20 03:35:07;;;;;;;2.80;0.90;;;8.60;77.40;;;;;;5044475;28;20095;-69
2023/05/20 03:37:32;;;;;;;3.55;1.10;;;8.70;76.50;;;;;;5048213;28;20028;-69
2023/05/20 03:39:58;;;;;;;3.45;1.00;;;8.70;76.70;;;;;;5044761;28;20029;-69
2023/05/20 03:42:24;;;;;;;2.88;1.08;;;8.70;76.60;;;;;;5049038;28;20057;-69
2023/05/20 03:44:50;;;;;;;2.25;1.00;;;8.80;76.70;;;;;;5050323;28;20071;-68
2023/05/20 03:47:15;;;;;;;1.90;0.80;;;8.80;76.30;;;;;;5047745;28;20025;-69
2023/05/20 03:49:41;;;;;;;2.28;1.08;;;8.80;76.50;;;;;;5050234;28;20035;-69
2023/05/20 03:52:06;;;;;;;2.40;1.02;;;8.80;76.70;;;;;;5039933;28;20056;-69
2023/05/20 03:54:34;;;;;;;2.92;0.80;;;8.90;76.20;;;;;;5050933;28;20036;-69
2023/05/20 03:56:59;;;;;;;2.28;0.98;;;9.00;76.10;;;;;;5044075;28;20071;-69
2023/05/20 03:59:26;;;;;;;3.53;1.05;;;9.00;76.10;;;;;;5050686;28;20025;-69
2023/05/20 04:01:51;;;;;;;1.65;0.80;;;9.00;76.40;;;;;;5046804;28;20118;-69
2023/05/20 04:04:17;;;;;;;5.45;1.13;;;9.10;76.50;;;;;;5045791;28;20454;-69
2023/05/20 04:06:42;;;;;;;2.75;0.90;;;9.10;76.10;;;;;;5048883;28;20388;-69
2023/05/20 04:09:08;;;;;;;3.40;1.02;;;9.10;76.40;;;;;;5056197;28;20029;-69
2023/05/20 04:11:33;;;;;;;3.20;1.02;;;9.10;75.80;;;;;;5054979;28;20056;-69
2023/05/20 04:13:59;;;;;;;1.75;0.82;;;9.20;76.00;;;;;;5053449;28;20112;-69
2023/05/20 04:16:24;;;;;;;3.15;0.90;;;9.20;76.20;;;;;;5049213;28;20453;-69
2023/05/20 04:18:51;;;;;;;2.00;0.90;;;9.20;76.70;;;;;;5058046;28;20469;-69
2023/05/20 04:21:18;;;;;;;3.70;1.05;;;9.20;76.50;;;;;;5042199;28;20029;-69
2023/05/20 04:23:43;;;;;;;6.75;0.98;;;9.30;76.70;;;;;;5064274;28;20234;-69
2023/05/20 04:26:09;;;;;;;3.72;1.13;;;9.20;76.90;;;;;;5050997;28;20044;-69
2023/05/20 04:28:36;;;;;;;1.88;1.20;;;9.30;76.70;;;;;;5046992;28;20104;-67
2023/05/20 04:31:03;;;;;;;1.98;1.00;;;9.40;76.60;;;;;;5051923;28;20375;-68
2023/05/20 04:33:29;;;;;;;2.75;0.80;;;9.40;76.60;;;;;;5039188;28;20022;-69
2023/05/20 04:35:57;;;;;;;2.95;1.08;;;9.40;75.90;;;;;;5048919;28;20450;-68
2023/05/20 04:38:28;;;;;;;1.42;0.82;;;9.50;75.70;;;;;;5046487;28;20036;-68
2023/05/20 04:40:57;;;;;;;3.03;0.93;;;9.60;76.30;;;;;;5048191;28;20052;-68
2023/05/20 04:43:24;;;;;;;2.60;1.08;;;9.60;76.60;;;;;;5042162;28;20031;-69
2023/05/20 04:45:52;;;;;;;1.80;1.00;;;9.70;77.40;;;;;;5052353;28;20037;-68
2023/05/20 04:48:18;;;;;;;2.80;1.05;;;9.70;77.00;;;;;;5053549;28;20051;-69
2023/05/20 04:50:44;;;;;;;2.90;1.00;;;9.70;76.50;;;;;;5050053;28;20457;-67
2023/05/20 04:53:10;;;;;;;2.53;1.10;;;9.70;76.30;;;;;;5053753;28;20048;-67
2023/05/20 04:55:36;;;;;;;1.80;0.80;;;9.70;77.40;;;;;;5047190;28;20454;-69
2023/05/20 04:58:02;;;;;;;1.73;0.80;;;9.80;76.60;;;;;;5048463;28;20027;-67
2023/05/20 05:00:28;;;;;;;4.03;1.13;;;9.80;76.70;;;;;;5038387;28;20029;-68
2023/05/20 05:02:54;;;;;;;3.08;1.10;;;9.80;76.50;;;;;;5046623;28;20025;-67
2023/05/20 05:05:19;;;;;;;2.85;1.13;;;9.80;76.30;;;;;;5045070;28;20031;-67
2023/05/20 05:07:45;;;;;;;1.42;0.98;;;9.90;77.10;;;;;;5045755;28;20513;-68
2023/05/20 05:10:11;;;;;;;2.38;1.05;;;9.90;77.30;;;;;;5042531;28;20528;-68
2023/05/20 05:12:36;;;;;;;2.45;1.08;;;10.00;77.00;;;;;;5044512;28;20039;-68
2023/05/20 05:15:02;;;;;;;2.05;0.90;;;10.00;76.20;;;;;;5049123;28;20068;-67
2023/05/20 05:17:27;;;;;;;4.72;1.10;;;10.10;76.50;;;;;;5042378;28;20025;-68
2023/05/20 05:19:53;;;;;;;3.15;1.10;;;10.10;76.50;;;;;;5040366;28;20036;-68
2023/05/20 05:22:18;;;;;;;2.67;0.98;;;10.10;76.80;;;;;;5040403;28;20055;-68
2023/05/20 05:24:44;;;;;;;6.05;1.33;;;10.20;76.90;;;;;;5048023;28;20045;-68
2023/05/20 05:27:09;;;;;;;4.78;1.15;;;10.30;77.10;;;;;;5041723;28;20040;-67
2023/05/20 05:29:35;;;;;;;4.03;0.90;;;10.40;76.70;;;;;;5041793;28;20474;-68
2023/05/20 05:32:00;;;;;;;2.75;1.05;;;10.40;75.70;;;;;;5040818;28;20029;-71
2023/05/20 05:34:26;;;;;;;2.65;1.10;;;10.50;76.10;;;;;;5047513;28;20116;-71
2023/05/20 05:36:51;;;;;;;3.20;1.10;;;10.60;76.10;;;;;;5048649;28;20036;-71
2023/05/20 05:39:17;;;;;;;5.95;1.10;;;10.70;76.10;;;;;;5049278;28;20028;-71
2023/05/20 05:41:42;;;;;;;3.03;1.10;;;10.90;75.90;;;;;;5044054;28;20097;-71
2023/05/20 05:44:08;;;;;;;4.68;1.10;;;11.00;75.30;;;;;;5046819;28;20041;-71
2023/05/20 05:46:33;;;;;;;3.30;1.13;;;11.00;74.90;;;;;;5043575;28;20619;-71
2023/05/20 05:48:59;;;;;;;4.20;1.13;;;11.10;75.00;;;;;;5048895;28;20025;-71
2023/05/20 05:51:27;;;;;;;4.10;1.02;;;11.20;74.60;;;;;;5045918;28;20036;-71
2023/05/20 05:53:53;;;;;;;3.08;1.20;;;11.40;75.50;;;;;;5065969;28;20040;-71
2023/05/20 05:56:19;;;;;;;2.00;1.10;;;11.50;74.60;;;;;;5054754;28;20037;-71
2023/05/20 05:58:44;;;;;;;5.50;1.27;;;11.50;74.00;;;;;;5049484;28;20367;-71
2023/05/20 06:01:10;;;;;;;7.35;1.42;;;11.70;74.70;;;;;;5040632;28;20025;-71
2023/05/20 06:03:35;;;;;;;1.95;1.38;;;12.00;74.90;;;;;;5045473;28;20377;-71
2023/05/20 06:06:01;;;;;;;4.25;1.10;;;12.10;74.80;;;;;;5045506;28;20024;-71
2023/05/20 06:08:26;;;;;;;3.95;0.98;;;12.20;74.70;;;;;;5048074;28;20532;-71
2023/05/20 06:10:52;;;;;;;3.00;1.25;;;12.40;73.90;;;;;;5052879;28;20059;-71
2023/05/20 06:13:18;;;;;;;4.78;1.00;;;12.30;72.70;;;;;;5049891;28;20354;-71
2023/05/20 06:15:44;;;;;;;2.05;1.00;;;12.40;73.00;;;;;;5051233;28;20033;-71
2023/05/20 06:18:11;;;;;;;2.00;0.88;;;12.60;73.70;;;;;;5044843;28;20029;-71
2023/05/20 06:20:37;;;;;;;6.50;1.27;;;12.70;73.40;;;;;;5046091;28;20403;-71
2023/05/20 06:23:02;;;;;;;1.88;1.20;;;12.90;72.40;;;;;;5049831;28;20044;-71
2023/05/20 06:25:28;;;;;;;3.47;1.10;;;12.90;71.80;;;;;;5049750;28;20118;-72
2023/05/20 06:27:53;;;;;;;3.28;1.48;;;12.90;72.90;;;;;;5050653;28;20389;-71
2023/05/20 06:30:19;;;;;;;2.65;1.10;;;12.90;72.70;;;;;;5051813;28;20021;-72
2023/05/20 06:32:45;;;;;;;3.50;1.48;;;13.00;72.10;;;;;;5044561;28;20033;-72
2023/05/20 06:35:11;;;;;;;6.30;1.33;;;13.10;72.00;;;;;;5046341;28;20033;-72
2023/05/20 06:37:36;;;;;;;2.45;1.20;;;13.20;72.40;;;;;;5049634;28;20151;-71
2023/05/20 06:40:02;;;;;;;4.40;1.10;;;13.10;72.60;;;;;;5044654;28;20033;-72
2023/05/20 06:42:27;;;;;;;2.97;1.42;;;13.10;72.60;;;;;;5050055;28;20028;-72
2023/05/20 06:44:53;;;;;;;3.40;1.38;;;13.10;72.40;;;;;;5051954;28;20025;-72
2023/05/20 06:47:19;;;;;;;6.15;1.50;;;13.10;72.40;;;;;;5051827;28;20045;-72
2023/05/20 06:49:45;;;;;;;3.72;1.20;;;13.30;72.40;;;;;;5045941;28;20026;-71
2023/05/20 06:52:10;;;;;;;4.68;1.23;;;13.30;72.00;;;;;;5041606;28;20468;-72
2023/05/20 06:54:40;;;;;;;2.92;1.33;;;13.40;71.80;;;;;;5046352;28;20048;-72
2023/05/20 06:57:09;;;;;;;3.05;1.20;;;13.60;72.00;;;;;;5048632;28;20021;-72
2023/05/20 06:59:35;;;;;;;4.70;1.42;;;13.70;71.10;;;;;;5046510;28;20108;-72
2023/05/20 07:02:01;;;;;;;6.00;1.30;;;13.90;72.10;;;;;;5045928;28;20025;-72
2023/05/20 07:04:27;;;;;;;3.35;1.45;;;14.00;71.90;;;;;;5041094;28;20385;-72
2023/05/20 07:06:52;;;;;;;3.25;1.20;;;14.10;69.30;;;;;;5042376;28;20191;-72
2023/05/20 07:09:18;;;;;;;3.10;1.40;;;14.30;70.20;;;;;;5042881;28;20062;-72
2023/05/20 07:11:43;;;;;;;4.07;1.30;;;14.40;68.90;;;;;;5045528;28;20024;-72
2023/05/20 07:14:10;;;;;;;5.82;1.45;;;14.60;69.10;;;;;;5039673;28;20071;-72
2023/05/20 07:16:35;;;;;;;7.15;1.40;;;14.80;68.00;;;;;;5048504;28;20381;-72
2023/05/20 07:19:01;;;;;;;4.00;1.63;;;15.00;68.40;;;;;;5047364;28;20033;-72
2023/05/20 07:21:27;;;;;;;5.63;1.40;;;15.10;67.20;;;;;;5045289;28;20406;-72
2023/05/20 07:23:52;;;;;;;3.38;1.35;;;15.30;67.80;;;;;;5044632;28;20086;-72
2023/05/20 07:26:18;;;;;;;3.80;1.27;;;15.40;66.20;;;;;;5048649;28;20047;-72
2023/05/20 07:28:45;;;;;;;3.55;1.35;;;15.80;67.90;;;;;;5042580;28;20060;-72
2023/05/20 07:31:11;;;;;;;3.20;1.10;;;15.60;66.20;;;;;;5048939;28;20024;-72
2023/05/20 07:33:37;;;;;;;4.78;1.52;;;15.90;64.80;;;;;;5039995;28;20059;-72
2023/05/20 07:36:03;;;;;;;3.20;1.20;;;16.10;66.10;;;;;;5037571;28;20067;-72
2023/05/20 07:38:28;;;;;;;6.68;1.48;;;16.30;65.70;;;;;;5039641;28;20033;-72
2023/05/20 07:40:54;;;;;;;2.53;1.17;;;16.30;65.20;;;;;;5051820;28;20372;-72
2023/05/20 07:43:19;;;;;;;3.05;1.25;;;16.50;66.00;;;;;;5047319;28;20099;-72
2023/05/20 07:45:44;;;;;;;3.63;1.30;;;16.40;63.70;;;;;;5041209;28;20419;-72
2023/05/20 07:48:11;;;;;;;3.25;1.30;;;16.90;65.10;;;;;;5047438;28;20040;-72
2023/05/20 07:50:38;;;;;;;6.40;1.27;;;17.00;64.60;;;;;;5047809;28;20029;-72
2023/05/20 07:53:03;;;;;;;4.32;1.30;;;17.00;63.20;;;;;;5062593;28;20430;-72
2023/05/20 07:55:30;;;;;;;5.72;1.50;;;17.00;64.90;;;;;;5047928;28;20124;-72
2023/05/20 07:57:55;;;;;;;4.00;1.38;;;16.90;61.20;;;;;;5049590;28;20409;-72
2023/05/20 08:00:21;;;;;;;2.72;1.40;;;17.00;64.60;;;;;;5057341;28;20021;-72
2023/05/20 08:02:46;;;;;;;3.75;1.30;;;17.30;62.00;;;;;;5053354;28;20033;-72
2023/05/20 08:05:12;;;;;;;4.85;1.67;;;17.60;62.40;;;;;;5043506;28;20053;-72
2023/05/20 08:07:37;;;;;;;5.90;1.50;;;17.90;61.80;;;;;;5048096;28;20033;-72
2023/05/20 08:10:03;;;;;;;2.55;1.15;;;17.90;62.90;;;;;;5043433;28;20033;-72
2023/05/20 08:12:28;;;;;;;5.65;1.42;;;17.60;61.40;;;;;;5045602;28;20078;-72
2023/05/20 08:14:54;;;;;;;3.35;1.30;;;17.70;61.60;;;;;;5044064;28;20072;-72
2023/05/20 08:17:19;;;;;;;3.45;1.60;;;18.10;60.20;;;;;;5042467;28;20028;-72
2023/05/20 08:19:45;;;;;;;2.70;1.38;;;18.00;59.50;;;;;;5038916;28;20036;-72
2023/05/20 08:22:11;;;;;;;2.45;1.23;;;17.80;60.70;;;;;;5049988;28;20032;-72
2023/05/20 08:24:37;;;;;;;3.65;1.60;;;17.80;60.10;;;;;;5036556;28;20059;-72
2023/05/20 08:27:03;;;;;;;7.05;1.38;;;17.60;60.20;;;;;;5040952;28;20029;-72
2023/05/20 08:29:29;;;;;;;3.50;1.30;;;18.20;60.80;;;;;;5046977;28;20021;-73
2023/05/20 08:31:55;;;;;;;4.32;1.30;;;18.30;59.40;;;;;;5044487;28;20032;-73
2023/05/20 08:34:21;;;;;;;4.18;1.20;;;18.60;60.40;;;;;;5034085;28;20033;-74
2023/05/20 08:36:46;;;;;;;3.63;1.40;;;18.60;58.10;;;;;;5043467;28;20113;-73
2023/05/20 08:39:12;;;;;;;3.40;1.50;;;18.10;57.90;;;;;;5048347;28;20454;-72
2023/05/20 08:41:38;;;;;;;6.18;1.23;;;17.60;60.00;;;;;;5037306;28;20029;-72
2023/05/20 08:44:04;;;;;;;3.88;1.33;;;17.90;61.50;;;;;;5051476;28;20039;-73
2023/05/20 08:46:33;;;;;;;3.35;1.20;;;18.40;60.00;;;;;;5048567;28;20063;-73
2023/05/20 08:48:59;;;;;;;3.15;1.33;;;18.10;59.00;;;;;;5046210;28;20078;-73
2023/05/20 08:51:26;;;;;;;4.85;1.45;;;18.50;58.30;;;;;;5044809;28;20406;-72
2023/05/20 08:53:53;;;;;;;4.85;1.55;;;18.10;60.20;;;;;;5041716;28;20047;-72
2023/05/20 08:56:20;;;;;;;3.83;1.45;;;18.60;56.80;;;;;;5043910;28;20420;-72
2023/05/20 08:58:46;;;;;;;4.20;1.30;;;19.00;58.30;;;;;;5038581;28;20032;-72
2023/05/20 09:01:11;;;;;;;3.13;1.30;;;18.90;57.40;;;;;;5044461;28;20079;-73
2023/05/20 09:03:37;;;;;;;2.60;1.10;;;19.20;57.80;;;;;;5044540;28;20047;-73
2023/05/20 09:06:04;;;;;;;1.85;1.20;;;19.40;57.00;;;;;;5043774;28;20025;-74
2023/05/20 09:08:30;;;;;;;3.35;1.42;;;19.20;56.20;;;;;;5042320;28;20032;-75
2023/05/20 09:10:56;;;;;;;4.95;1.38;;;19.00;56.90;;;;;;5043129;28;20432;-76
2023/05/20 09:13:23;;;;;;;3.25;1.30;;;19.10;56.40;;;;;;5048132;28;20108;-74
2023/05/20 09:15:48;;;;;;;4.20;1.40;;;18.40;54.90;;;;;;5048928;28;20029;-74
2023/05/20 09:18:14;;;;;;;2.88;1.50;;;18.10;57.90;;;;;;5047626;28;20031;-74
2023/05/20 09:20:40;;;;;;;3.78;1.23;;;18.00;59.90;;;;;;5046394;28;20035;-75
2023/05/20 09:23:08;;;;;;;6.45;1.45;;;18.00;58.70;;;;;;5046788;28;20051;-74
2023/05/20 09:25:35;;;;;;;4.30;1.13;;;17.90;58.50;;;;;;5045381;28;20498;-74
2023/05/20 09:28:08;;;;;;;3.53;0.88;;;18.00;59.90;;;;;;5043690;28;20454;-75
2023/05/20 09:30:34;;;;;;;2.28;1.08;;;18.70;57.20;;;;;;5043913;28;20032;-73
2023/05/20 09:33:02;;;;;;;2.53;1.13;;;19.20;53.30;;;;;;5048495;28;20040;-75
2023/05/20 09:35:27;;;;;;;2.65;1.08;;;19.90;55.60;;;;;;5046098;28;20033;-75
2023/05/20 09:37:55;;;;;;;4.72;1.08;;;20.10;52.20;;;;;;5056110;28;20024;-75
2023/05/20 09:40:26;;;;;;;4.03;1.10;;;19.80;52.00;;;;;;5060827;28;20029;-75
2023/05/20 09:43:00;;;;;;;1.48;0.90;;;19.50;53.20;;;;;;5051284;28;20556;-74
2023/05/20 09:45:25;;;;;;;5.07;1.30;;;19.30;55.90;;;;;;5052276;28;20037;-75
2023/05/20 09:47:52;;;;;;;2.50;1.10;;;18.90;54.30;;;;;;5041991;28;20037;-75
2023/05/20 09:50:20;;;;;;;4.05;1.40;;;18.90;55.50;;;;;;5043335;28;20567;-75
2023/05/20 09:52:52;;;;;;;4.90;1.50;;;18.80;56.70;;;;;;5055865;28;20544;-76
2023/05/20 09:55:19;;;;;;;3.25;1.20;;;18.50;56.10;;;;;;5062639;28;20037;-75
2023/05/20 09:57:46;;;;;;;3.55;1.30;;;18.40;57.60;;;;;;5048270;28;20393;-74
2023/05/20 10:00:13;;;;;;;3.85;1.30;;;18.20;57.20;;;;;;5044198;28;20037;-74
2023/05/20 10:02:48;;;;;;;6.43;1.15;;;18.80;56.50;;;;;;5048576;28;20028;-75
2023/05/20 10:05:30;;;;;;;2.72;1.20;;;19.50;55.20;;;;;;5050127;28;20036;-74
2023/05/20 10:08:11;;;;;;;4.40;1.10;;;19.50;55.10;;;;;;5036870;28;20603;-74
2023/05/20 10:10:57;;;;;;;4.75;1.40;;;19.50;52.20;;;;;;5050508;28;20032;-74
2023/05/20 10:13:47;;;;;;;2.30;1.15;;;19.30;54.90;;;;;;5059785;28;20033;-74
2023/05/20 10:16:28;;;;;;;3.28;1.30;;;19.50;54.20;;;;;;5039177;28;20474;-73
2023/05/20 10:19:06;;;;;;;2.20;1.17;;;19.60;54.00;;;;;;5042943;28;20513;-74
2023/05/20 10:21:32;;;;;;;2.38;1.10;;;19.30;54.30;;;;;;5052331;28;20032;-73
2023/05/20 10:24:10;;;;;;;2.97;1.13;;;19.00;57.10;;;;;;5048953;28;20025;-74
2023/05/20 10:26:41;;;;;;;2.90;1.42;;;18.90;54.40;;;;;;5065885;28;20048;-74
2023/05/20 10:29:19;;;;;;;4.07;1.10;;;18.60;55.30;;;;;;5046019;28;20044;-74
2023/05/20 10:31:48;;;;;;;2.03;1.20;;;18.50;56.20;;;;;;5050294;28;20025;-73
2023/05/20 10:34:21;;;;;;;6.25;1.25;;;18.20;55.60;;;;;;5046225;28;20041;-74
2023/05/20 10:36:56;;;;;;;2.03;1.15;;;18.50;55.80;;;;;;5059697;28;20127;-74
2023/05/20 10:39:29;;;;;;;2.25;1.27;;;18.30;56.10;;;;;;5050029;28;20443;-73
2023/05/20 10:42:08;;;;;;;6.55;1.63;;;18.30;57.50;;;;;;5050574;28;20035;-73
2023/05/20 10:44:44;;;;;;;3.03;1.05;;;18.00;57.20;;;;;;5050142;28;20122;-73
2023/05/20 10:47:10;;;;;;;4.00;1.20;;;18.10;56.40;;;;;;5057508;28;20029;-73
2023/05/20 10:49:40;;;;;;;3.53;1.23;;;18.00;55.40;;;;;;5046854;28;20036;-74
2023/05/20 10:52:09;;;;;;;2.97;1.30;;;18.50;55.50;;;;;;5046913;28;20459;-74
2023/05/20 10:54:36;;;;;;;2.53;0.88;;;18.90;55.00;;;;;;5047526;28;20482;-73
2023/05/20 10:57:08;;;;;;;3.08;1.25;;;18.80;55.10;;;;;;5049688;28;20477;-73
2023/05/20 10:59:34;;;;;;;4.53;1.42;;;18.70;52.60;;;;;;5053249;28;20029;-73
2023/05/20 11:02:01;;;;;;;2.70;1.40;;;18.60;54.00;;;;;;5049540;28;20079;-73
2023/05/20 11:04:28;;;;;;;3.35;1.15;;;18.70;54.70;;;;;;5041657;28;20028;-74
2023/05/20 11:06:54;;;;;;;2.78;1.00;;;18.00;53.40;;;;;;5048843;28;20021;-73
2023/05/20 11:09:19;;;;;;;3.47;1.13;;;17.80;55.70;;;;;;5045945;28;20094;-74
2023/05/20 11:11:45;;;;;;;4.20;1.20;;;18.30;57.40;;;;;;5033810;28;20444;-73
2023/05/20 11:14:15;;;;;;;1.80;1.10;;;18.00;55.00;;;;;;5045889;28;20045;-74
2023/05/20 11:16:41;;;;;;;7.78;1.30;;;18.00;56.30;;;;;;5051388;28;20036;-73
2023/05/20 11:19:08;;;;;;;2.45;1.05;;;17.80;59.00;;;;;;5044764;28;20492;-73
2023/05/20 11:21:33;;;;;;;4.55;1.15;;;17.90;57.90;;;;;;5045330;28;20044;-73
2023/05/20 11:23:59;;;;;;;2.75;1.27;;;18.20;59.90;;;;;;5049476;28;20021;-74
2023/05/20 11:26:24;;;;;;;1.92;1.00;;;18.30;57.80;;;;;;5046002;28;20040;-74
2023/05/20 11:28:50;;;;;;;3.13;0.98;;;18.40;56.10;;;;;;5047742;28;20029;-74
2023/05/20 11:31:17;;;;;;;3.42;1.50;;;18.50;57.30;;;;;;5050104;28;20378;-73
2023/05/20 11:33:43;;;;;;;4.95;1.30;;;18.20;54.70;;;;;;5048582;28;20025;-73
2023/05/20 11:36:09;;;;;;;3.50;1.33;;;18.00;56.80;;;;;;5046192;28;20031;-73
2023/05/20 11:38:35;;;;;;;5.00;1.40;;;18.00;58.40;;;;;;5048029;28;20028;-73
2023/05/20 11:41:01;;;;;;;3.95;1.35;;;17.80;58.50;;;;;;5043176;28;20029;-73
2023/05/20 11:43:26;;;;;;;2.92;1.15;;;18.20;57.00;;;;;;5050915;28;20036;-73
2023/05/20 11:45:54;;;;;;;2.70;1.20;;;18.50;56.90;;;;;;5050038;28;20124;-73
2023/05/20 11:48:19;;;;;;;7.15;1.42;;;18.40;55.90;;;;;;5054911;28;20420;-74
2023/05/20 11:50:47;;;;;;;2.47;1.20;;;18.30;57.90;;;;;;5055919;28;20065;-73
2023/05/20 11:53:17;;;;;;;4.82;1.40;;;18.10;57.70;;;;;;5039614;28;20120;-74
2023/05/20 11:55:50;;;;;;;6.32;1.40;;;18.30;56.80;;;;;;5053117;28;20065;-73
2023/05/20 11:58:21;;;;;;;5.13;1.45;;;18.30;56.50;;;;;;5042544;28;20130;-74
2023/05/20 12:00:47;;;;;;;4.85;1.45;;;18.20;57.40;;;;;;5053365;28;20025;-73
2023/05/20 12:03:12;;;;;;;6.25;1.40;;;17.80;56.70;;;;;;5052374;28;20063;-73
2023/05/20 12:05:38;;;;;;;3.72;1.40;;;18.00;57.90;;;;;;5036110;28;20033;-73
2023/05/20 12:08:05;;;;;;;3.08;1.20;;;18.00;57.10;;;;;;5036024;28;20037;-73
2023/05/20 12:10:31;;;;;;;5.95;1.65;;;17.90;57.60;;;;;;5044932;28;20025;-74
2023/05/20 12:12:57;;;;;;;4.28;1.50;;;18.00;58.80;;;;;;5046786;28;20049;-73
2023/05/20 12:15:22;;;;;;;2.58;1.20;;;18.20;58.60;;;;;;5038230;28;20456;-73
2023/05/20 12:17:51;;;;;;;3.97;1.38;;;18.30;58.80;;;;;;5042676;28;20025;-73
2023/05/20 12:20:20;;;;;;;3.55;1.40;;;18.30;58.80;;;;;;5035820;28;20044;-74
2023/05/20 12:22:46;;;;;;;3.28;1.58;;;18.30;58.30;;;;;;5043652;28;20110;-74
2023/05/20 12:25:14;;;;;;;4.78;1.33;;;18.40;58.00;;;;;;5053624;28;20127;-73
2023/05/20 12:27:40;;;;;;;5.00;1.50;;;18.30;59.00;;;;;;5046354;28;20034;-74
2023/05/20 12:30:07;;;;;;;6.63;1.88;;;18.30;58.20;;;;;;5046326;28;20025;-74
2023/05/20 12:32:32;;;;;;;5.93;1.40;;;18.10;57.50;;;;;;5037171;28;20147;-74
2023/05/20 12:34:58;;;;;;;5.28;1.48;;;17.80;57.60;;;;;;5041456;28;20143;-73
2023/05/20 12:37:23;;;;;;;6.28;2.28;;;17.90;59.80;;;;;;5050964;28;20056;-73
2023/05/20 12:39:49;;;;;;;5.55;1.70;;;18.00;59.40;;;;;;5048435;28;20040;-73
2023/05/20 12:42:14;;;;;;;4.75;1.55;;;18.20;59.60;;;;;;5048806;28;20025;-73
2023/05/20 12:44:40;;;;;;;4.63;1.55;;;18.50;57.60;;;;;;5050709;28;20500;-74
2023/05/20 12:47:05;;;;;;;3.30;1.50;;;18.30;57.60;;;;;;5048287;28;20673;-74